sensor_id;sensor_type;location;lat;lon;timestamp;pressure;altitude;pressure_sealevel;temperature;humidity
40650;BME280;26342;42.826;23.992;2023-07-30T00:02:17;95190.31;;;17.81;100.00
40650;BME280;26342;42.826;23.992;2023-07-30T00:04:43;95183.91;;;17.77;100.00
40650;BME280;26342;42.826;23.992;2023-07-30T00:22:40;95177.44;;;18.31;100.00
40650;BME280;26342;42.826;23.992;2023-07-30T00:25:06;95167.38;;;18.23;100.00
40650;BME280;26342;42.826;23.992;2023-07-30T00:27:31;95175.75;;;18.13;100.00
40650;BME280;26342;42.826;23.992;2023-07-30T00:29:57;95174.13;;;18.03;100.00
40650;BME280;26342;42.826;23.992;2023-07-30T00:32:22;95181.06;;;17.96;100.00
40650;BME280;26342;42.826;23.992;2023-07-30T00:34:48;95165.22;;;17.80;100.00
40650;BME280;26342;42.826;23.992;2023-07-30T00:37:13;95174.13;;;17.81;100.00
40650;BME280;26342;42.826;23.992;2023-07-30T00:39:38;95170.16;;;17.78;100.00
40650;BME280;26342;42.826;23.992;2023-07-30T00:42:04;95159.16;;;17.75;100.00
40650;BME280;26342;42.826;23.992;2023-07-30T00:44:30;95158.44;;;17.69;100.00
40650;BME280;26342;42.826;23.992;2023-07-30T00:46:55;95160.88;;;17.71;100.00
40650;BME280;26342;42.826;23.992;2023-07-30T00:49:20;95173.84;;;17.69;100.00
40650;BME280;26342;42.826;23.992;2023-07-30T00:51:46;95167.94;;;17.67;100.00
40650;BME280;26342;42.826;23.992;2023-07-30T00:54:12;95169.63;;;17.54;100.00
40650;BME280;26342;42.826;23.992;2023-07-30T00:56:38;95161.44;;;17.45;100.00
40650;BME280;26342;42.826;23.992;2023-07-30T00:59:06;95159.34;;;17.42;100.00
40650;BME280;26342;42.826;23.992;2023-07-30T01:01:33;95165.84;;;17.41;100.00
40650;BME280;26342;42.826;23.992;2023-07-30T01:04:01;95153.09;;;17.33;100.00
40650;BME280;26342;42.826;23.992;2023-07-30T01:06:26;95159.59;;;17.32;100.00
40650;BME280;26342;42.826;23.992;2023-07-30T01:08:52;95158.91;;;17.26;100.00
40650;BME280;26342;42.826;23.992;2023-07-30T01:11:18;95165.28;;;17.30;100.00
40650;BME280;26342;42.826;23.992;2023-07-30T01:13:44;95168.41;;;17.24;100.00
40650;BME280;26342;42.826;23.992;2023-07-30T01:16:10;95165.19;;;17.22;100.00
40650;BME280;26342;42.826;23.992;2023-07-30T01:18:36;95172.06;;;17.28;100.00
40650;BME280;26342;42.826;23.992;2023-07-30T01:21:01;95152.81;;;17.21;100.00
40650;BME280;26342;42.826;23.992;2023-07-30T01:23:26;95161.44;;;17.09;100.00
40650;BME280;26342;42.826;23.992;2023-07-30T01:26:08;95150.38;;;16.97;100.00
40650;BME280;26342;42.826;23.992;2023-07-30T01:28:43;95169.34;;;16.92;100.00
40650;BME280;26342;42.826;23.992;2023-07-30T01:31:14;95169.75;;;16.85;100.00
40650;BME280;26342;42.826;23.992;2023-07-30T01:33:41;95167.84;;;16.86;100.00
40650;BME280;26342;42.826;23.992;2023-07-30T01:36:08;95158.88;;;16.77;100.00
40650;BME280;26342;42.826;23.992;2023-07-30T01:38:35;95170.16;;;16.79;100.00
40650;BME280;26342;42.826;23.992;2023-07-30T01:41:01;95173.75;;;16.88;100.00
40650;BME280;26342;42.826;23.992;2023-07-30T01:43:26;95169.66;;;16.77;100.00
40650;BME280;26342;42.826;23.992;2023-07-30T01:45:52;95172.34;;;16.77;100.00
40650;BME280;26342;42.826;23.992;2023-07-30T01:48:17;95166.84;;;16.68;100.00
40650;BME280;26342;42.826;23.992;2023-07-30T01:50:43;95166.84;;;16.68;100.00
40650;BME280;26342;42.826;23.992;2023-07-30T01:53:08;95168.75;;;16.67;100.00
40650;BME280;26342;42.826;23.992;2023-07-30T01:55:34;95167.66;;;16.68;100.00
40650;BME280;26342;42.826;23.992;2023-07-30T01:57:59;95161.47;;;16.68;100.00
40650;BME280;26342;42.826;23.992;2023-07-30T02:00:24;95164.72;;;16.65;100.00
40650;BME280;26342;42.826;23.992;2023-07-30T02:02:50;95177.00;;;16.57;100.00
40650;BME280;26342;42.826;23.992;2023-07-30T02:05:15;95160.53;;;16.59;100.00
40650;BME280;26342;42.826;23.992;2023-07-30T02:07:41;95163.66;;;16.52;100.00
40650;BME280;26342;42.826;23.992;2023-07-30T02:10:06;95168.94;;;16.57;100.00
40650;BME280;26342;42.826;23.992;2023-07-30T02:12:32;95172.94;;;16.60;100.00
40650;BME280;26342;42.826;23.992;2023-07-30T02:14:57;95167.56;;;16.60;100.00
40650;BME280;26342;42.826;23.992;2023-07-30T02:17:22;95173.50;;;16.57;100.00
40650;BME280;26342;42.826;23.992;2023-07-30T02:19:48;95171.94;;;16.56;100.00
40650;BME280;26342;42.826;23.992;2023-07-30T02:22:13;95179.69;;;16.57;100.00
40650;BME280;26342;42.826;23.992;2023-07-30T02:24:39;95171.03;;;16.46;100.00
40650;BME280;26342;42.826;23.992;2023-07-30T02:27:04;95169.22;;;16.42;100.00
40650;BME280;26342;42.826;23.992;2023-07-30T02:29:30;95177.28;;;16.42;100.00
40650;BME280;26342;42.826;23.992;2023-07-30T02:31:56;95173.00;;;16.41;100.00
40650;BME280;26342;42.826;23.992;2023-07-30T02:34:21;95172.69;;;16.42;100.00
40650;BME280;26342;42.826;23.992;2023-07-30T02:36:49;95178.09;;;16.42;100.00
40650;BME280;26342;42.826;23.992;2023-07-30T02:39:14;95183.78;;;16.41;100.00
40650;BME280;26342;42.826;23.992;2023-07-30T02:41:39;95188.56;;;16.30;100.00
40650;BME280;26342;42.826;23.992;2023-07-30T02:44:05;95193.16;;;16.30;100.00
40650;BME280;26342;42.826;23.992;2023-07-30T02:46:30;95176.28;;;16.24;100.00
40650;BME280;26342;42.826;23.992;2023-07-30T02:48:56;95190.16;;;16.31;100.00
40650;BME280;26342;42.826;23.992;2023-07-30T02:51:21;95190.47;;;16.30;100.00
40650;BME280;26342;42.826;23.992;2023-07-30T02:53:46;95192.13;;;16.26;100.00
40650;BME280;26342;42.826;23.992;2023-07-30T02:56:12;95191.63;;;16.24;100.00
40650;BME280;26342;42.826;23.992;2023-07-30T02:58:37;95189.25;;;16.22;100.00
40650;BME280;26342;42.826;23.992;2023-07-30T03:01:07;95197.03;;;16.24;100.00
40650;BME280;26342;42.826;23.992;2023-07-30T03:03:33;95196.91;;;16.15;100.00
40650;BME280;26342;42.826;23.992;2023-07-30T03:05:58;95200.03;;;16.22;100.00
40650;BME280;26342;42.826;23.992;2023-07-30T03:08:24;95200.31;;;16.21;100.00
40650;BME280;26342;42.826;23.992;2023-07-30T03:10:49;95204.97;;;16.15;100.00
40650;BME280;26342;42.826;23.992;2023-07-30T03:13:15;95194.91;;;16.07;100.00
40650;BME280;26342;42.826;23.992;2023-07-30T03:15:40;95204.56;;;16.08;100.00
40650;BME280;26342;42.826;23.992;2023-07-30T03:18:06;95205.97;;;16.05;100.00
40650;BME280;26342;42.826;23.992;2023-07-30T03:20:31;95192.19;;;16.07;100.00
40650;BME280;26342;42.826;23.992;2023-07-30T03:22:57;95200.47;;;16.10;100.00
40650;BME280;26342;42.826;23.992;2023-07-30T03:25:22;95195.88;;;16.11;100.00
40650;BME280;26342;42.826;23.992;2023-07-30T03:27:47;95188.13;;;16.09;100.00
40650;BME280;26342;42.826;23.992;2023-07-30T03:30:13;95198.88;;;16.09;100.00
40650;BME280;26342;42.826;23.992;2023-07-30T03:32:38;95202.47;;;16.05;100.00
40650;BME280;26342;42.826;23.992;2023-07-30T03:35:05;95202.06;;;15.98;100.00
40650;BME280;26342;42.826;23.992;2023-07-30T03:37:31;95199.19;;;16.08;100.00
40650;BME280;26342;42.826;23.992;2023-07-30T03:39:56;95197.34;;;16.03;100.00
40650;BME280;26342;42.826;23.992;2023-07-30T03:42:21;95197.66;;;16.02;100.00
40650;BME280;26342;42.826;23.992;2023-07-30T03:44:47;95192.88;;;15.99;100.00
40650;BME280;26342;42.826;23.992;2023-07-30T03:47:12;95195.19;;;16.05;100.00
40650;BME280;26342;42.826;23.992;2023-07-30T03:49:37;95200.28;;;16.07;100.00
40650;BME280;26342;42.826;23.992;2023-07-30T03:52:03;95201.28;;;16.11;100.00
40650;BME280;26342;42.826;23.992;2023-07-30T03:54:29;95200.47;;;16.10;100.00
40650;BME280;26342;42.826;23.992;2023-07-30T03:56:54;95200.69;;;16.14;100.00
40650;BME280;26342;42.826;23.992;2023-07-30T03:59:19;95196.09;;;16.14;100.00
40650;BME280;26342;42.826;23.992;2023-07-30T04:01:45;95202.72;;;16.22;100.00
40650;BME280;26342;42.826;23.992;2023-07-30T04:04:11;95208.22;;;16.31;100.00
40650;BME280;26342;42.826;23.992;2023-07-30T04:06:36;95205.94;;;16.38;100.00
40650;BME280;26342;42.826;23.992;2023-07-30T04:09:01;95208.81;;;16.41;100.00
40650;BME280;26342;42.826;23.992;2023-07-30T04:11:27;95206.84;;;16.47;100.00
40650;BME280;26342;42.826;23.992;2023-07-30T04:13:52;95203.75;;;16.54;100.00
40650;BME280;26342;42.826;23.992;2023-07-30T04:16:18;95206.34;;;16.59;100.00
40650;BME280;26342;42.826;23.992;2023-07-30T04:18:43;95211.84;;;16.67;100.00
40650;BME280;26342;42.826;23.992;2023-07-30T04:21:09;95190.03;;;16.69;100.00
40650;BME280;26342;42.826;23.992;2023-07-30T04:23:35;95201.47;;;16.74;100.00
40650;BME280;26342;42.826;23.992;2023-07-30T04:26:01;95205.88;;;16.84;100.00
40650;BME280;26342;42.826;23.992;2023-07-30T04:28:26;95214.06;;;16.93;100.00
40650;BME280;26342;42.826;23.992;2023-07-30T04:30:51;95213.47;;;16.96;100.00
40650;BME280;26342;42.826;23.992;2023-07-30T04:33:17;95208.97;;;17.05;100.00
40650;BME280;26342;42.826;23.992;2023-07-30T04:35:42;95199.34;;;17.13;100.00
40650;BME280;26342;42.826;23.992;2023-07-30T04:38:08;95192.66;;;17.24;100.00
40650;BME280;26342;42.826;23.992;2023-07-30T04:40:33;95200.22;;;17.36;100.00
40650;BME280;26342;42.826;23.992;2023-07-30T04:42:59;95201.88;;;17.45;100.00
40650;BME280;26342;42.826;23.992;2023-07-30T04:45:24;95196.06;;;17.52;100.00
40650;BME280;26342;42.826;23.992;2023-07-30T04:47:50;95194.88;;;17.58;100.00
40650;BME280;26342;42.826;23.992;2023-07-30T04:50:15;95200.03;;;17.68;100.00
40650;BME280;26342;42.826;23.992;2023-07-30T04:52:40;95207.00;;;17.83;100.00
40650;BME280;26342;42.826;23.992;2023-07-30T04:55:06;95207.38;;;17.90;100.00
40650;BME280;26342;42.826;23.992;2023-07-30T04:57:32;95214.41;;;18.00;100.00
40650;BME280;26342;42.826;23.992;2023-07-30T04:59:57;95204.19;;;18.10;100.00
40650;BME280;26342;42.826;23.992;2023-07-30T05:02:22;95195.66;;;18.17;100.00
40650;BME280;26342;42.826;23.992;2023-07-30T05:04:48;95205.72;;;18.25;100.00
40650;BME280;26342;42.826;23.992;2023-07-30T05:07:13;95197.50;;;18.39;100.00
40650;BME280;26342;42.826;23.992;2023-07-30T05:09:39;95199.63;;;18.51;100.00
40650;BME280;26342;42.826;23.992;2023-07-30T05:12:04;95201.91;;;18.57;100.00
40650;BME280;26342;42.826;23.992;2023-07-30T05:14:30;95207.72;;;18.73;100.00
40650;BME280;26342;42.826;23.992;2023-07-30T05:16:55;95206.66;;;18.91;100.00
40650;BME280;26342;42.826;23.992;2023-07-30T05:19:21;95198.72;;;19.04;100.00
40650;BME280;26342;42.826;23.992;2023-07-30T05:21:46;95200.69;;;19.20;100.00
40650;BME280;26342;42.826;23.992;2023-07-30T05:24:12;95200.41;;;19.31;100.00
40650;BME280;26342;42.826;23.992;2023-07-30T05:26:38;95190.22;;;19.45;100.00
40650;BME280;26342;42.826;23.992;2023-07-30T05:29:03;95194.72;;;19.58;100.00
40650;BME280;26342;42.826;23.992;2023-07-30T05:31:29;95179.44;;;19.62;100.00
40650;BME280;26342;42.826;23.992;2023-07-30T05:33:55;95185.31;;;19.82;100.00
40650;BME280;26342;42.826;23.992;2023-07-30T05:36:20;95189.13;;;19.98;100.00
40650;BME280;26342;42.826;23.992;2023-07-30T05:38:46;95194.03;;;20.13;100.00
40650;BME280;26342;42.826;23.992;2023-07-30T05:41:11;95183.03;;;20.27;100.00
40650;BME280;26342;42.826;23.992;2023-07-30T05:43:37;95187.31;;;20.45;100.00
40650;BME280;26342;42.826;23.992;2023-07-30T05:46:02;95183.75;;;20.62;100.00
40650;BME280;26342;42.826;23.992;2023-07-30T05:48:28;95195.78;;;20.82;100.00
40650;BME280;26342;42.826;23.992;2023-07-30T05:50:53;95188.88;;;20.93;100.00
40650;BME280;26342;42.826;23.992;2023-07-30T05:53:19;95189.59;;;21.11;100.00
40650;BME280;26342;42.826;23.992;2023-07-30T05:55:44;95195.25;;;21.27;100.00
40650;BME280;26342;42.826;23.992;2023-07-30T05:58:10;95201.38;;;21.44;100.00
40650;BME280;26342;42.826;23.992;2023-07-30T06:00:35;95190.84;;;21.64;100.00
40650;BME280;26342;42.826;23.992;2023-07-30T06:03:01;95188.47;;;21.83;100.00
40650;BME280;26342;42.826;23.992;2023-07-30T06:05:27;95179.56;;;21.95;100.00
40650;BME280;26342;42.826;23.992;2023-07-30T06:07:52;95189.47;;;22.20;100.00
40650;BME280;26342;42.826;23.992;2023-07-30T06:10:17;95192.34;;;22.36;100.00
40650;BME280;26342;42.826;23.992;2023-07-30T06:12:43;95189.78;;;22.52;100.00
40650;BME280;26342;42.826;23.992;2023-07-30T06:15:09;95182.31;;;22.73;100.00
40650;BME280;26342;42.826;23.992;2023-07-30T06:17:34;95181.56;;;22.85;100.00
40650;BME280;26342;42.826;23.992;2023-07-30T06:20:00;95182.91;;;23.03;100.00
40650;BME280;26342;42.826;23.992;2023-07-30T06:22:25;95183.38;;;23.18;100.00
40650;BME280;26342;42.826;23.992;2023-07-30T06:24:51;95185.06;;;23.34;100.00
40650;BME280;26342;42.826;23.992;2023-07-30T06:27:16;95184.13;;;23.55;100.00
40650;BME280;26342;42.826;23.992;2023-07-30T06:29:42;95165.47;;;23.69;100.00
40650;BME280;26342;42.826;23.992;2023-07-30T06:32:08;95168.75;;;23.87;100.00
40650;BME280;26342;42.826;23.992;2023-07-30T06:34:33;95170.09;;;24.09;100.00
40650;BME280;26342;42.826;23.992;2023-07-30T06:36:59;95168.84;;;24.18;99.53
40650;BME280;26342;42.826;23.992;2023-07-30T06:39:24;95162.31;;;24.35;96.67
40650;BME280;26342;42.826;23.992;2023-07-30T06:41:50;95171.97;;;24.48;98.57
40650;BME280;26342;42.826;23.992;2023-07-30T06:44:15;95158.09;;;24.69;94.44
40650;BME280;26342;42.826;23.992;2023-07-30T06:46:41;95158.03;;;24.82;94.97
40650;BME280;26342;42.826;23.992;2023-07-30T06:49:07;95161.59;;;25.01;91.31
40650;BME280;26342;42.826;23.992;2023-07-30T06:51:34;95159.97;;;25.13;89.46
40650;BME280;26342;42.826;23.992;2023-07-30T06:53:59;95148.56;;;25.26;88.09
40650;BME280;26342;42.826;23.992;2023-07-30T06:56:25;95145.78;;;25.42;84.38
40650;BME280;26342;42.826;23.992;2023-07-30T06:58:50;95152.66;;;25.52;84.23
40650;BME280;26342;42.826;23.992;2023-07-30T07:01:15;95156.03;;;25.65;81.55
40650;BME280;26342;42.826;23.992;2023-07-30T07:03:41;95146.66;;;25.81;84.25
40650;BME280;26342;42.826;23.992;2023-07-30T07:06:07;95144.22;;;25.96;83.20
40650;BME280;26342;42.826;23.992;2023-07-30T07:08:32;95145.00;;;26.15;78.15
40650;BME280;26342;42.826;23.992;2023-07-30T07:10:58;95150.38;;;26.31;75.36
40650;BME280;26342;42.826;23.992;2023-07-30T07:13:23;95140.84;;;26.44;68.01
40650;BME280;26342;42.826;23.992;2023-07-30T07:15:48;95149.69;;;26.57;68.98
40650;BME280;26342;42.826;23.992;2023-07-30T07:18:14;95139.53;;;26.58;69.91
40650;BME280;26342;42.826;23.992;2023-07-30T07:20:39;95147.91;;;26.68;67.20
40650;BME280;26342;42.826;23.992;2023-07-30T07:23:05;95138.06;;;26.87;69.34
40650;BME280;26342;42.826;23.992;2023-07-30T07:25:30;95137.06;;;26.98;66.48
40650;BME280;26342;42.826;23.992;2023-07-30T07:27:56;95136.22;;;27.17;66.36
40650;BME280;26342;42.826;23.992;2023-07-30T07:30:21;95134.81;;;27.27;63.23
40650;BME280;26342;42.826;23.992;2023-07-30T07:32:46;95130.78;;;27.47;62.63
40650;BME280;26342;42.826;23.992;2023-07-30T07:35:16;95137.31;;;27.66;60.27
40650;BME280;26342;42.826;23.992;2023-07-30T07:37:42;95122.56;;;27.74;57.97
40650;BME280;26342;42.826;23.992;2023-07-30T07:40:08;95127.75;;;27.83;61.15
40650;BME280;26342;42.826;23.992;2023-07-30T07:42:34;95126.28;;;27.92;59.41
40650;BME280;26342;42.826;23.992;2023-07-30T07:45:00;95116.66;;;28.05;57.70
40650;BME280;26342;42.826;23.992;2023-07-30T07:47:25;95125.84;;;28.20;56.64
40650;BME280;26342;42.826;23.992;2023-07-30T07:49:51;95117.75;;;28.34;56.69
40650;BME280;26342;42.826;23.992;2023-07-30T07:52:16;95117.44;;;28.40;58.43
40650;BME280;26342;42.826;23.992;2023-07-30T07:54:42;95119.56;;;28.57;56.57
40650;BME280;26342;42.826;23.992;2023-07-30T07:57:08;95119.63;;;28.64;56.92
40650;BME280;26342;42.826;23.992;2023-07-30T07:59:34;95119.69;;;28.75;56.53
40650;BME280;26342;42.826;23.992;2023-07-30T08:01:59;95100.94;;;28.80;57.20
40650;BME280;26342;42.826;23.992;2023-07-30T08:04:24;95112.06;;;28.95;54.66
40650;BME280;26342;42.826;23.992;2023-07-30T08:06:50;95113.75;;;29.10;56.95
40650;BME280;26342;42.826;23.992;2023-07-30T08:09:15;95109.84;;;29.14;57.71
40650;BME280;26342;42.826;23.992;2023-07-30T08:11:41;95103.28;;;29.33;55.64
40650;BME280;26342;42.826;23.992;2023-07-30T08:14:06;95105.34;;;29.47;53.67
40650;BME280;26342;42.826;23.992;2023-07-30T08:16:32;95101.16;;;29.67;54.02
40650;BME280;26342;42.826;23.992;2023-07-30T08:18:57;95096.84;;;29.77;50.67
40650;BME280;26342;42.826;23.992;2023-07-30T08:21:23;95100.88;;;30.01;49.63
40650;BME280;26342;42.826;23.992;2023-07-30T08:23:48;95094.22;;;30.06;48.86
40650;BME280;26342;42.826;23.992;2023-07-30T08:26:14;95093.50;;;30.12;49.27
40650;BME280;26342;42.826;23.992;2023-07-30T08:28:39;95089.22;;;30.36;48.17
40650;BME280;26342;42.826;23.992;2023-07-30T08:31:05;95080.19;;;30.43;47.76
40650;BME280;26342;42.826;23.992;2023-07-30T08:33:31;95097.13;;;30.59;46.60
40650;BME280;26342;42.826;23.992;2023-07-30T08:35:56;95090.41;;;30.64;44.61
40650;BME280;26342;42.826;23.992;2023-07-30T08:38:22;95086.47;;;30.65;47.78
40650;BME280;26342;42.826;23.992;2023-07-30T08:40:48;95094.38;;;30.80;45.09
40650;BME280;26342;42.826;23.992;2023-07-30T08:43:15;95092.03;;;30.82;43.32
40650;BME280;26342;42.826;23.992;2023-07-30T08:45:41;95086.13;;;30.84;43.20
40650;BME280;26342;42.826;23.992;2023-07-30T08:48:07;95084.16;;;30.99;45.76
40650;BME280;26342;42.826;23.992;2023-07-30T08:50:33;95063.69;;;31.07;43.92
40650;BME280;26342;42.826;23.992;2023-07-30T08:53:01;95074.69;;;31.25;41.63
40650;BME280;26342;42.826;23.992;2023-07-30T08:55:28;95072.31;;;31.34;43.35
40650;BME280;26342;42.826;23.992;2023-07-30T08:57:56;95069.50;;;31.48;42.97
40650;BME280;26342;42.826;23.992;2023-07-30T09:00:24;95077.38;;;31.53;43.20
40650;BME280;26342;42.826;23.992;2023-07-30T09:02:59;95069.88;;;31.61;40.95
40650;BME280;26342;42.826;23.992;2023-07-30T09:05:25;95067.88;;;31.68;39.66
40650;BME280;26342;42.826;23.992;2023-07-30T09:07:53;95073.78;;;31.71;42.28
40650;BME280;26342;42.826;23.992;2023-07-30T09:10:18;95074.16;;;31.80;39.06
40650;BME280;26342;42.826;23.992;2023-07-30T09:12:44;95074.94;;;31.73;39.01
40650;BME280;26342;42.826;23.992;2023-07-30T09:15:10;95069.81;;;31.72;38.53
40650;BME280;26342;42.826;23.992;2023-07-30T09:17:35;95070.25;;;31.77;39.83
40650;BME280;26342;42.826;23.992;2023-07-30T09:20:04;95062.72;;;31.81;41.51
40650;BME280;26342;42.826;23.992;2023-07-30T09:22:32;95070.97;;;31.92;38.04
40650;BME280;26342;42.826;23.992;2023-07-30T09:25:07;95059.09;;;31.95;36.52
40650;BME280;26342;42.826;23.992;2023-07-30T09:27:33;95063.41;;;32.03;39.00
40650;BME280;26342;42.826;23.992;2023-07-30T09:30:00;95060.94;;;32.19;39.63
40650;BME280;26342;42.826;23.992;2023-07-30T09:32:28;95060.56;;;32.14;39.05
40650;BME280;26342;42.826;23.992;2023-07-30T09:34:54;95055.47;;;32.12;39.42
40650;BME280;26342;42.826;23.992;2023-07-30T09:37:20;95051.16;;;32.08;38.98
40650;BME280;26342;42.826;23.992;2023-07-30T09:39:50;95054.78;;;31.94;39.04
40650;BME280;26342;42.826;23.992;2023-07-30T09:42:15;95056.75;;;31.93;39.48
40650;BME280;26342;42.826;23.992;2023-07-30T09:44:41;95048.84;;;31.95;40.55
40650;BME280;26342;42.826;23.992;2023-07-30T09:47:10;95050.41;;;32.00;40.06
40650;BME280;26342;42.826;23.992;2023-07-30T09:49:37;95036.97;;;32.06;39.04
40650;BME280;26342;42.826;23.992;2023-07-30T09:52:04;95041.69;;;32.09;39.66
40650;BME280;26342;42.826;23.992;2023-07-30T09:54:31;95044.38;;;32.19;41.01
40650;BME280;26342;42.826;23.992;2023-07-30T09:56:58;95037.63;;;32.28;38.39
40650;BME280;26342;42.826;23.992;2023-07-30T09:59:24;95038.44;;;32.32;38.95
40650;BME280;26342;42.826;23.992;2023-07-30T10:01:50;95041.94;;;32.39;37.92
40650;BME280;26342;42.826;23.992;2023-07-30T10:04:21;95042.31;;;32.38;38.31
40650;BME280;26342;42.826;23.992;2023-07-30T10:07:03;95038.78;;;32.30;40.57
40650;BME280;26342;42.826;23.992;2023-07-30T10:09:37;95031.72;;;32.22;38.45
40650;BME280;26342;42.826;23.992;2023-07-30T10:12:10;95031.69;;;32.29;39.27
40650;BME280;26342;42.826;23.992;2023-07-30T10:14:37;95029.69;;;32.40;39.51
40650;BME280;26342;42.826;23.992;2023-07-30T10:17:03;95032.03;;;32.42;39.85
40650;BME280;26342;42.826;23.992;2023-07-30T10:19:29;95022.19;;;32.41;39.64
40650;BME280;26342;42.826;23.992;2023-07-30T10:24:38;95020.66;;;32.29;39.03
40650;BME280;26342;42.826;23.992;2023-07-30T10:27:08;95025.34;;;32.39;41.19
40650;BME280;26342;42.826;23.992;2023-07-30T10:29:35;95017.84;;;32.40;39.86
40650;BME280;26342;42.826;23.992;2023-07-30T10:32:01;95018.97;;;32.49;40.37
40650;BME280;26342;42.826;23.992;2023-07-30T10:34:44;94988.31;;;32.30;39.71
40650;BME280;26342;42.826;23.992;2023-07-30T10:37:10;95013.44;;;32.49;39.73
40650;BME280;26342;42.826;23.992;2023-07-30T10:39:36;95005.22;;;32.42;39.87
40650;BME280;26342;42.826;23.992;2023-07-30T10:42:01;95011.56;;;32.36;38.21
40650;BME280;26342;42.826;23.992;2023-07-30T10:44:36;95014.38;;;32.32;39.31
40650;BME280;26342;42.826;23.992;2023-07-30T10:47:02;95011.22;;;32.27;38.18
40650;BME280;26342;42.826;23.992;2023-07-30T10:49:41;95014.81;;;32.20;37.41
40650;BME280;26342;42.826;23.992;2023-07-30T10:52:09;95006.97;;;32.11;38.02
40650;BME280;26342;42.826;23.992;2023-07-30T10:54:36;94999.84;;;32.17;37.63
40650;BME280;26342;42.826;23.992;2023-07-30T10:57:02;95006.50;;;32.23;39.05
40650;BME280;26342;42.826;23.992;2023-07-30T10:59:34;95003.75;;;32.23;38.30
40650;BME280;26342;42.826;23.992;2023-07-30T11:01:59;94989.53;;;32.21;41.11
40650;BME280;26342;42.826;23.992;2023-07-30T11:04:25;94976.47;;;32.29;37.35
40650;BME280;26342;42.826;23.992;2023-07-30T11:06:51;94990.16;;;32.50;39.56
40650;BME280;26342;42.826;23.992;2023-07-30T11:09:24;94984.56;;;32.58;37.59
40650;BME280;26342;42.826;23.992;2023-07-30T11:11:51;94990.88;;;32.55;37.47
40650;BME280;26342;42.826;23.992;2023-07-30T11:14:22;94992.50;;;32.52;39.81
40650;BME280;26342;42.826;23.992;2023-07-30T11:16:58;94977.88;;;32.55;39.96
40650;BME280;26342;42.826;23.992;2023-07-30T11:19:25;94982.53;;;32.65;41.94
40650;BME280;26342;42.826;23.992;2023-07-30T11:21:52;94964.72;;;32.70;39.50
40650;BME280;26342;42.826;23.992;2023-07-30T11:24:19;94968.25;;;32.70;37.80
40650;BME280;26342;42.826;23.992;2023-07-30T11:26:45;94967.56;;;32.63;36.64
40650;BME280;26342;42.826;23.992;2023-07-30T11:29:17;94965.75;;;32.42;37.73
40650;BME280;26342;42.826;23.992;2023-07-30T11:31:44;94961.03;;;32.42;37.28
40650;BME280;26342;42.826;23.992;2023-07-30T11:34:10;94960.91;;;32.57;44.30
40650;BME280;26342;42.826;23.992;2023-07-30T11:36:37;94969.91;;;32.64;37.95
40650;BME280;26342;42.826;23.992;2023-07-30T11:39:03;94958.56;;;32.52;36.26
40650;BME280;26342;42.826;23.992;2023-07-30T11:41:29;94951.53;;;32.47;36.33
40650;BME280;26342;42.826;23.992;2023-07-30T11:43:55;94952.69;;;32.49;37.59
40650;BME280;26342;42.826;23.992;2023-07-30T11:46:21;94944.47;;;32.42;36.92
40650;BME280;26342;42.826;23.992;2023-07-30T11:48:50;94942.91;;;32.38;35.84
40650;BME280;26342;42.826;23.992;2023-07-30T11:51:29;94944.09;;;32.37;37.00
40650;BME280;26342;42.826;23.992;2023-07-30T11:53:57;94947.59;;;32.44;35.42
40650;BME280;26342;42.826;23.992;2023-07-30T11:56:31;94950.03;;;32.35;37.51
40650;BME280;26342;42.826;23.992;2023-07-30T11:59:06;94931.88;;;32.31;37.50
40650;BME280;26342;42.826;23.992;2023-07-30T12:01:34;94934.31;;;32.25;39.31
40650;BME280;26342;42.826;23.992;2023-07-30T12:04:03;94933.91;;;32.27;38.53
40650;BME280;26342;42.826;23.992;2023-07-30T12:07:02;94936.00;;;32.12;38.04
40650;BME280;26342;42.826;23.992;2023-07-30T12:09:28;94921.38;;;32.15;37.08
40650;BME280;26342;42.826;23.992;2023-07-30T12:12:00;94920.94;;;32.20;36.97
40650;BME280;26342;42.826;23.992;2023-07-30T12:14:52;94925.69;;;32.19;37.37
40650;BME280;26342;42.826;23.992;2023-07-30T12:17:18;94918.25;;;32.13;37.05
40650;BME280;26342;42.826;23.992;2023-07-30T12:19:43;94911.16;;;32.12;38.74
40650;BME280;26342;42.826;23.992;2023-07-30T12:22:09;94907.13;;;32.23;36.88
40650;BME280;26342;42.826;23.992;2023-07-30T12:24:35;94904.44;;;32.16;37.85
40650;BME280;26342;42.826;23.992;2023-07-30T12:27:01;94899.38;;;32.08;37.61
40650;BME280;26342;42.826;23.992;2023-07-30T12:29:26;94896.63;;;32.04;37.06
40650;BME280;26342;42.826;23.992;2023-07-30T12:31:52;94892.25;;;32.07;40.97
40650;BME280;26342;42.826;23.992;2023-07-30T12:34:22;94894.19;;;32.13;37.09
40650;BME280;26342;42.826;23.992;2023-07-30T12:36:48;94889.44;;;32.14;36.25
40650;BME280;26342;42.826;23.992;2023-07-30T12:39:13;94885.91;;;32.13;36.73
40650;BME280;26342;42.826;23.992;2023-07-30T12:41:38;94886.31;;;32.12;37.99
40650;BME280;26342;42.826;23.992;2023-07-30T12:44:04;94876.84;;;32.13;35.94
40650;BME280;26342;42.826;23.992;2023-07-30T12:46:30;94879.97;;;32.15;36.42
40650;BME280;26342;42.826;23.992;2023-07-30T12:48:57;94874.84;;;32.17;36.97
40650;BME280;26342;42.826;23.992;2023-07-30T12:51:28;94863.41;;;32.15;36.90
40650;BME280;26342;42.826;23.992;2023-07-30T12:53:53;94866.53;;;32.20;36.76
40650;BME280;26342;42.826;23.992;2023-07-30T12:56:19;94867.66;;;32.27;36.91
40650;BME280;26342;42.826;23.992;2023-07-30T12:58:44;94857.81;;;32.22;37.52
40650;BME280;26342;42.826;23.992;2023-07-30T13:01:10;94863.75;;;32.20;37.94